Time;durP1;ratioP1;P1;durP2;ratioP2;P2;SDS_P1;SDS_P2;PMS_P1;PMS_P2;Temp;Humidity;BMP_temperature;BMP_pressure;BME280_temperature;BME280_humidity;BME280_pressure;Samples;Min_cycle;Max_cycle;Signal;HPM_P1;HPM_P2
2022/06/20 00:02:21;;;;;;;8.20;6.22;;;;;;;27.72;42.94;100910.97;5044410;28;20107;-77
2022/06/20 00:04:50;;;;;;;8.60;4.35;;;;;;;27.74;43.17;100914.25;5043958;28;20072;-78
2022/06/20 00:07:17;;;;;;;8.32;5.10;;;;;;;27.79;43.41;100922.53;5046020;28;20091;-78
2022/06/20 00:09:45;;;;;;;5.82;5.22;;;;;;;27.62;44.89;100900.69;5044074;28;20053;-77
2022/06/20 00:12:17;;;;;;;7.68;6.72;;;;;;;27.53;46.46;100901.31;5049573;28;20107;-78
2022/06/20 00:14:57;;;;;;;7.43;6.72;;;;;;;27.23;48.38;100902.31;5048086;28;20506;-78
2022/06/20 00:17:24;;;;;;;10.68;6.60;;;;;;;27.34;48.53;100936.09;5048232;28;20099;-78
2022/06/20 00:19:52;;;;;;;12.10;7.60;;;;;;;27.03;48.95;100938.91;5048140;28;20501;-78
2022/06/20 00:22:19;;;;;;;8.98;7.97;;;;;;;26.62;49.62;100888.94;5049968;28;20041;-78
2022/06/20 00:24:45;;;;;;;12.70;7.70;;;;;;;26.84;49.88;100937.38;5048174;28;20408;-78
2022/06/20 00:27:12;;;;;;;10.25;6.95;;;;;;;26.58;50.47;100923.16;5048016;28;20049;-78
2022/06/20 00:29:41;;;;;;;12.27;7.38;;;;;;;26.36;51.15;100935.59;5048245;28;20057;-77
2022/06/20 00:32:10;;;;;;;9.80;7.65;;;;;;;25.85;51.80;100867.09;5047670;28;20081;-79
2022/06/20 00:34:37;;;;;;;16.40;8.68;;;;;;;26.06;51.70;100924.78;5047885;28;20073;-79
2022/06/20 00:37:06;;;;;;;10.02;8.98;;;;;;;25.53;53.28;100921.66;5047436;28;20080;-79
2022/06/20 00:39:33;;;;;;;12.65;8.38;;;;;;;25.38;53.48;100924.75;5039218;28;20054;-78
2022/06/20 00:42:01;;;;;;;11.88;8.68;;;;;;;25.37;53.71;100917.66;5027669;28;20454;-78
2022/06/20 00:44:34;;;;;;;13.57;9.05;;;;;;;25.35;53.67;100903.47;5027946;28;20053;-78
2022/06/20 00:47:10;;;;;;;10.32;7.95;;;;;;;25.61;53.95;100917.81;5027559;28;20092;-79
2022/06/20 00:49:55;;;;;;;14.27;8.80;;;;;;;25.61;53.58;100923.25;5028999;28;20131;-79
2022/06/20 00:52:39;;;;;;;8.88;8.02;;;;;;;25.15;54.09;100876.50;5030601;28;20144;-78
2022/06/20 00:55:27;;;;;;;10.70;9.38;;;;;;;25.43;53.94;100931.41;5047942;28;20056;-80
2022/06/20 00:58:00;;;;;;;19.67;9.70;;;;;;;25.28;53.98;100912.75;5047447;28;20224;-81
2022/06/20 01:00:33;;;;;;;13.13;9.70;;;;;;;25.14;54.14;100914.75;5047348;28;20457;-79
2022/06/20 01:03:11;;;;;;;10.57;9.25;;;;;;;25.15;54.74;100936.28;5047411;28;20565;-78
2022/06/20 01:05:47;;;;;;;10.00;9.02;;;;;;;24.92;55.13;100917.06;5050610;28;20121;-77
2022/06/20 01:08:20;;;;;;;12.35;10.43;;;;;;;25.07;54.97;100941.16;5054769;28;20052;-79
2022/06/20 01:11:18;;;;;;;11.90;9.50;;;;;;;24.95;55.46;100936.47;5054993;28;20103;-79
2022/06/20 01:13:45;;;;;;;10.43;8.85;;;;;;;24.69;55.18;100898.72;5047277;28;20126;-79
2022/06/20 01:16:14;;;;;;;10.18;9.25;;;;;;;24.77;55.27;100905.72;5047294;28;20300;-80
2022/06/20 01:18:44;;;;;;;16.83;9.23;;;;;;;24.67;55.35;100900.81;5048898;28;20041;-78
2022/06/20 01:21:27;;;;;;;14.57;10.55;;;;;;;24.81;55.74;100932.22;5046379;28;20095;-79
2022/06/20 01:24:03;;;;;;;15.25;10.30;;;;;;;24.53;56.41;100914.47;5046300;28;20088;-79
2022/06/20 01:27:08;;;;;;;15.55;10.52;;;;;;;24.63;56.31;100924.00;5046947;28;20060;-79
2022/06/20 01:29:35;;;;;;;12.38;11.10;;;;;;;24.61;56.10;100920.69;5005709;28;20057;-79
2022/06/20 01:32:04;;;;;;;11.90;10.70;;;;;;;24.59;56.30;100914.66;5039837;28;20471;-79
2022/06/20 01:34:32;;;;;;;19.27;11.75;;;;;;;24.59;56.64;100918.22;5046984;28;20049;-78
2022/06/20 01:37:23;;;;;;;11.73;10.63;;;;;;;24.66;56.68;100929.84;5046560;28;20533;-80
2022/06/20 01:39:52;;;;;;;14.57;10.38;;;;;;;24.66;56.63;100921.69;5035483;28;20053;-79
2022/06/20 01:42:20;;;;;;;20.70;11.05;;;;;;;24.47;56.59;100880.09;5028918;28;20099;-79
2022/06/20 01:44:52;;;;;;;11.98;10.30;;;;;;;24.63;56.55;100918.59;5028208;28;20458;-79
2022/06/20 01:47:20;;;;;;;12.27;11.07;;;;;;;24.57;56.76;100911.34;5026822;28;20384;-78
2022/06/20 01:49:52;;;;;;;13.95;10.02;;;;;;;24.12;57.15;100855.28;5026391;28;20056;-79
2022/06/20 01:52:24;;;;;;;12.88;9.95;;;;;;;24.56;57.17;100906.94;5028425;28;20057;-78
2022/06/20 01:55:00;;;;;;;13.10;10.10;;;;;;;24.22;57.01;100857.50;5046444;28;20190;-77
2022/06/20 01:57:30;;;;;;;12.35;9.52;;;;;;;24.25;57.35;100863.34;5046373;28;20053;-80
2022/06/20 02:00:00;;;;;;;11.43;9.43;;;;;;;24.41;57.62;100893.69;5047501;28;20076;-78
2022/06/20 02:02:30;;;;;;;16.40;11.10;;;;;;;24.30;57.63;100884.38;5046556;28;20064;-80
2022/06/20 02:04:57;;;;;;;12.40;11.10;;;;;;;24.39;57.65;100904.75;5046006;28;20122;-80
2022/06/20 02:07:24;;;;;;;10.38;9.45;;;;;;;24.42;57.60;100887.19;5046108;28;20461;-79
2022/06/20 02:09:51;;;;;;;12.85;9.57;;;;;;;24.28;57.48;100859.34;5045093;28;20045;-80
2022/06/20 02:12:19;;;;;;;12.48;10.18;;;;;;;24.55;57.58;100891.72;5045427;28;20079;-78
2022/06/20 02:14:57;;;;;;;10.73;9.63;;;;;;;23.98;57.84;100805.75;5046275;28;20174;-80
2022/06/20 02:17:31;;;;;;;10.45;9.05;;;;;;;24.71;57.67;100899.28;5045758;28;20061;-79
2022/06/20 02:20:02;;;;;;;12.13;10.15;;;;;;;24.69;57.14;100877.00;5045939;28;20395;-79
2022/06/20 02:22:31;;;;;;;9.73;8.85;;;;;;;24.68;57.09;100892.44;5046788;28;20619;-79
2022/06/20 02:25:05;;;;;;;12.70;9.43;;;;;;;24.62;57.44;100893.34;5046098;28;20056;-79
2022/06/20 02:27:38;;;;;;;10.02;8.75;;;;;;;24.58;57.53;100885.84;5044969;28;20106;-79
2022/06/20 02:30:08;;;;;;;11.63;9.55;;;;;;;24.49;57.60;100878.00;5044584;28;20061;-79
2022/06/20 02:32:54;;;;;;;12.07;9.52;;;;;;;24.34;57.77;100863.88;5046011;28;20155;-79
2022/06/20 02:35:21;;;;;;;11.98;9.05;;;;;;;24.41;57.68;100870.09;5045958;28;20552;-79
2022/06/20 02:37:49;;;;;;;10.20;9.30;;;;;;;24.43;57.63;100881.56;5044279;28;20049;-79
2022/06/20 02:40:20;;;;;;;10.93;8.98;;;;;;;24.25;57.44;100859.81;5031017;28;20046;-79
2022/06/20 02:42:56;;;;;;;11.35;8.57;;;;;;;23.79;57.98;100790.47;5025622;28;20122;-79
2022/06/20 02:45:24;;;;;;;9.55;8.10;;;;;;;24.46;57.73;100899.31;5025767;28;20054;-79
2022/06/20 02:47:59;;;;;;;11.35;7.90;;;;;;;24.31;57.91;100877.91;5026010;28;20148;-79
2022/06/20 02:50:32;;;;;;;12.85;9.05;;;;;;;24.36;58.27;100915.22;5025893;28;20061;-79
2022/06/20 02:53:16;;;;;;;10.15;8.93;;;;;;;24.17;58.60;100908.88;5032828;28;20041;-79
2022/06/20 02:55:46;;;;;;;10.75;9.35;;;;;;;24.13;58.52;100904.94;5045086;28;20219;-79
2022/06/20 02:58:20;;;;;;;10.20;9.25;;;;;;;23.43;58.89;100783.78;5045393;28;20061;-79
2022/06/20 03:01:13;;;;;;;11.73;8.15;;;;;;;24.21;58.79;100893.84;5044858;28;20048;-78
2022/06/20 03:03:48;;;;;;;13.30;9.10;;;;;;;24.29;58.93;100899.81;5046079;28;20096;-78
2022/06/20 03:06:50;;;;;;;11.25;8.30;;;;;;;24.12;58.48;100876.97;5048707;28;20242;-78
2022/06/20 03:09:19;;;;;;;;;;;;;;;24.28;58.63;100897.34;5044636;28;20102;-78
2022/06/20 03:11:46;;;;;;;10.93;9.07;;;;;;;24.29;58.22;100901.69;5045937;28;19920;-79
2022/06/20 03:14:16;;;;;;;11.70;9.38;;;;;;;24.07;58.46;100864.06;5046672;28;20052;-78
2022/06/20 03:16:43;;;;;;;9.48;8.38;;;;;;;24.31;58.37;100892.28;5044496;28;20081;-78
2022/06/20 03:19:17;;;;;;;10.35;7.40;;;;;;;24.31;58.13;100888.75;5043724;28;20048;-79
2022/06/20 03:21:47;;;;;;;13.40;8.38;;;;;;;24.39;57.94;100896.59;5043958;28;20498;-79
2022/06/20 03:24:17;;;;;;;8.95;8.05;;;;;;;24.09;58.03;100859.28;5043828;28;20289;-79
2022/06/20 03:26:44;;;;;;;9.77;7.65;;;;;;;24.34;57.99;100898.31;5044342;28;20048;-78
2022/06/20 03:29:16;;;;;;;9.48;6.95;;;;;;;24.38;58.05;100904.97;5044660;28;20303;-79
2022/06/20 03:31:43;;;;;;;9.38;7.30;;;;;;;24.23;57.55;100880.88;5044531;28;20111;-79
2022/06/20 03:34:12;;;;;;;7.97;7.13;;;;;;;24.28;57.16;100886.47;5043262;28;20139;-79
2022/06/20 03:36:41;;;;;;;9.43;7.47;;;;;;;24.46;56.84;100899.31;5044115;28;20102;-79
2022/06/20 03:39:08;;;;;;;9.77;6.82;;;;;;;24.30;56.74;100870.81;5039578;28;20057;-79
2022/06/20 03:41:35;;;;;;;9.80;6.75;;;;;;;24.35;56.35;100876.41;5024396;28;20045;-77
2022/06/20 03:44:13;;;;;;;7.28;5.78;;;;;;;24.57;55.66;100911.34;5024230;28;20123;-79
2022/06/20 03:46:56;;;;;;;8.90;6.13;;;;;;;24.72;54.94;100899.09;5027374;28;20507;-78
2022/06/20 03:49:48;;;;;;;7.95;5.93;;;;;;;24.78;54.18;100886.50;5028835;28;20053;-78
2022/06/20 03:52:22;;;;;;;10.52;5.72;;;;;;;24.79;53.50;100871.88;5030371;28;20131;-78
2022/06/20 03:54:55;;;;;;;8.07;5.13;;;;;;;25.05;52.71;100891.66;5049817;28;20057;-77
2022/06/20 03:57:42;;;;;;;6.28;5.38;;;;;;;25.17;52.04;100900.75;5048596;28;20052;-78
2022/06/20 04:00:13;;;;;;;10.15;5.35;;;;;;;25.26;51.44;100898.56;5048045;28;20174;-78
2022/06/20 04:02:53;;;;;;;6.88;4.72;;;;;;;24.88;50.08;100818.94;5048657;28;20469;-78
2022/06/20 04:05:27;;;;;;;5.63;4.43;;;;;;;25.52;48.88;100911.03;5055990;28;20041;-78
2022/06/20 04:08:02;;;;;;;7.60;4.93;;;;;;;25.52;49.06;100911.03;5063022;28;20049;-79
2022/06/20 04:11:00;;;;;;;5.93;4.45;;;;;;;25.44;48.59;100895.00;5073180;28;20033;-78
2022/06/20 04:13:40;;;;;;;5.53;4.70;;;;;;;25.44;49.15;100873.25;5071543;28;20063;-78
2022/06/20 04:16:15;;;;;;;5.43;4.43;;;;;;;25.79;47.17;100917.75;5050932;28;20049;-78
2022/06/20 04:19:01;;;;;;;5.65;5.07;;;;;;;25.80;47.84;100911.28;5049936;28;20053;-78
2022/06/20 04:21:46;;;;;;;8.88;4.53;;;;;;;25.90;47.07;100912.63;5049383;28;20156;-78
2022/06/20 04:24:23;;;;;;;6.63;5.55;;;;;;;25.76;48.36;100899.19;5049049;28;20102;-79
2022/06/20 04:26:53;;;;;;;14.27;6.65;;;;;;;25.91;49.51;100917.03;5049242;28;20045;-79
2022/06/20 04:29:31;;;;;;;10.65;6.35;;;;;;;25.92;50.98;100926.84;5049204;28;20132;-79
2022/06/20 04:32:36;;;;;;;10.98;7.35;;;;;;;25.62;52.66;100875.13;5053005;28;20045;-79
2022/06/20 04:35:11;;;;;;;7.78;6.95;;;;;;;25.82;52.54;100918.38;5051443;28;20106;-78
2022/06/20 04:37:52;;;;;;;12.57;7.55;;;;;;;25.82;53.09;100918.38;5049928;28;20057;-79
2022/06/20 04:40:25;;;;;;;8.40;7.50;;;;;;;25.75;53.75;100908.44;5030268;28;20204;-78
2022/06/20 04:43:01;;;;;;;12.85;7.53;;;;;;;25.67;53.85;100914.16;5026399;28;20370;-80
2022/06/20 04:45:50;;;;;;;11.98;7.63;;;;;;;25.64;55.00;100917.34;5027579;28;20054;-79
2022/06/20 04:48:20;;;;;;;10.13;9.13;;;;;;;25.53;54.83;100890.94;5026665;28;20077;-78
2022/06/20 04:50:59;;;;;;;11.10;8.73;;;;;;;25.89;54.54;100930.03;5027775;28;20060;-78
2022/06/20 04:53:40;;;;;;;10.05;8.63;;;;;;;25.98;54.29;100934.91;5037396;28;20510;-79
2022/06/20 04:56:12;;;;;;;14.55;8.73;;;;;;;25.52;54.85;100873.78;5045735;28;20110;-79
2022/06/20 04:58:49;;;;;;;14.18;9.20;;;;;;;25.81;54.91;100923.00;5046606;28;20053;-79
2022/06/20 05:01:17;;;;;;;11.45;9.32;;;;;;;25.77;55.25;100928.03;5045684;28;20103;-78
2022/06/20 05:03:46;;;;;;;12.82;9.50;;;;;;;25.65;55.70;100905.41;5046298;28;20091;-78
2022/06/20 05:06:24;;;;;;;19.73;9.60;;;;;;;25.64;55.74;100914.63;5048851;28;20049;-78
2022/06/20 05:08:55;;;;;;;12.27;8.70;;;;;;;25.79;55.63;100925.09;5051145;28;20057;-79
2022/06/20 05:12:01;;;;;;;8.65;7.82;;;;;;;25.58;55.88;100885.63;5046316;28;20073;-79
2022/06/20 05:14:53;;;;;;;12.13;9.40;;;;;;;25.85;55.99;100912.47;5028267;28;20412;-79
2022/06/20 05:17:25;;;;;;;11.25;7.93;;;;;;;26.02;55.96;100929.81;5029828;28;20351;-79
2022/06/20 05:19:58;;;;;;;16.70;8.98;;;;;;;25.59;55.96;100850.06;5045828;28;20127;-80
2022/06/20 05:22:30;;;;;;;17.05;9.20;;;;;;;25.97;55.65;100916.94;5045613;28;20111;-78
2022/06/20 05:24:58;;;;;;;;;;;;;;;26.11;56.19;100931.16;5046036;28;20458;-78
2022/06/20 05:27:29;;;;;;;13.63;8.43;;;;;;;26.20;55.04;100931.69;5044880;28;20146;-78
2022/06/20 05:30:02;;;;;;;15.93;8.67;;;;;;;26.27;54.63;100920.72;5045256;28;20044;-79
2022/06/20 05:32:36;;;;;;;17.27;8.93;;;;;;;25.89;54.33;100849.25;5032333;28;20383;-78
2022/06/20 05:35:16;;;;;;;16.33;8.30;;;;;;;26.43;54.22;100928.16;5025720;28;20053;-78
2022/06/20 05:37:58;;;;;;;15.45;7.53;;;;;;;26.48;53.53;100917.41;5025957;28;20053;-79
2022/06/20 05:40:39;;;;;;;14.00;7.28;;;;;;;26.56;53.06;100936.19;5042372;28;20049;-78
2022/06/20 05:43:16;;;;;;;7.38;6.70;;;;;;;26.57;52.46;100940.53;5027086;28;20132;-77
2022/06/20 05:45:44;;;;;;;14.30;7.78;;;;;;;26.61;52.63;100933.56;5025105;28;20085;-77
2022/06/20 05:48:12;;;;;;;9.30;7.13;;;;;;;26.63;52.53;100945.06;5027147;28;20139;-78
2022/06/20 05:50:52;;;;;;;11.20;7.60;;;;;;;26.67;52.15;100944.59;5024435;28;20085;-78
2022/06/20 05:53:26;;;;;;;7.63;6.88;;;;;;;26.58;52.03;100931.31;5034835;28;20080;-79
2022/06/20 05:55:57;;;;;;;11.07;7.32;;;;;;;26.68;51.52;100944.38;5044318;28;20625;-79
2022/06/20 05:58:28;;;;;;;15.67;6.63;;;;;;;26.38;51.23;100884.50;5044970;28;20049;-77
2022/06/20 06:00:57;;;;;;;;;;;;;;;26.72;51.38;100950.97;5046579;28;20360;-78
2022/06/20 06:03:32;;;;;;;11.07;7.00;;;;;;;26.63;50.92;100931.44;5044202;28;19960;-79
2022/06/20 06:06:07;;;;;;;12.20;6.93;;;;;;;26.81;51.07;100954.19;5024890;28;20426;-79
2022/06/20 06:08:43;;;;;;;7.72;5.90;;;;;;;26.85;51.07;100958.13;5024003;28;20053;-77
2022/06/20 06:11:26;;;;;;;8.52;6.50;;;;;;;26.96;50.54;100951.00;5024940;28;20494;-78
2022/06/20 06:14:25;;;;;;;8.63;6.82;;;;;;;26.98;50.66;100949.69;5024588;28;20099;-79
2022/06/20 06:17:23;;;;;;;9.63;7.35;;;;;;;27.03;50.55;100955.25;5025909;28;20049;-78
2022/06/20 06:20:17;;;;;;;10.23;6.43;;;;;;;27.06;50.33;100954.81;5024941;28;20056;-79
2022/06/20 06:22:47;;;;;;;12.07;6.28;;;;;;;26.80;50.27;100903.53;5025683;28;20103;-78
2022/06/20 06:25:23;;;;;;;11.82;7.47;;;;;;;27.23;50.00;100951.38;5023897;28;20103;-78
2022/06/20 06:27:54;;;;;;;12.00;7.38;;;;;;;27.27;49.59;100938.94;5024473;28;20053;-79
2022/06/20 06:30:25;;;;;;;13.55;7.38;;;;;;;27.36;48.59;100940.22;5023892;28;20049;-77
2022/06/20 06:32:59;;;;;;;10.30;6.65;;;;;;;27.52;49.28;100954.19;5024634;28;20061;-78
2022/06/20 06:35:45;;;;;;;6.53;5.38;;;;;;;27.32;48.83;100910.97;5023978;28;20064;-78
2022/06/20 06:38:17;;;;;;;6.32;5.78;;;;;;;27.37;48.59;100903.72;5024239;28;20119;-79
2022/06/20 06:40:51;;;;;;;7.72;5.97;;;;;;;27.83;47.79;100956.50;5042315;28;20322;-78
2022/06/20 06:43:20;;;;;;;9.10;6.03;;;;;;;28.06;46.31;100950.13;5044244;28;20082;-79
2022/06/20 06:45:53;;;;;;;6.78;6.00;;;;;;;28.19;47.67;100954.44;5043459;28;20748;-79
2022/06/20 06:48:46;;;;;;;8.75;6.55;;;;;;;28.16;46.56;100938.56;5044222;28;20060;-77
2022/06/20 06:51:36;;;;;;;12.27;5.78;;;;;;;28.26;45.29;100944.19;5044695;28;20049;-78
2022/06/20 06:54:16;;;;;;;13.82;5.60;;;;;;;28.46;45.46;100953.84;5020937;28;20049;-78
2022/06/20 06:56:59;;;;;;;7.72;5.90;;;;;;;28.12;44.08;100885.53;5024187;28;20053;-77
2022/06/20 06:59:42;;;;;;;8.05;5.70;;;;;;;28.56;44.58;100945.81;5023826;28;20114;-78
2022/06/20 07:02:23;;;;;;;5.90;5.28;;;;;;;28.48;44.95;100935.31;5024080;28;20093;-77
2022/06/20 07:04:55;;;;;;;8.95;6.28;;;;;;;28.33;45.11;100889.47;5026849;28;20438;-78
2022/06/20 07:07:37;;;;;;;7.97;6.05;;;;;;;28.77;43.74;100945.09;5030763;28;20113;-79
2022/06/20 07:10:07;;;;;;;7.78;5.95;;;;;;;28.73;45.40;100935.72;5028085;28;20248;-77
2022/06/20 07:12:45;;;;;;;9.98;6.10;;;;;;;28.71;44.35;100923.41;5025105;28;20061;-77
2022/06/20 07:15:19;;;;;;;6.70;6.10;;;;;;;28.92;46.26;100941.75;5023608;28;20549;-78
2022/06/20 07:17:50;;;;;;;6.07;5.43;;;;;;;28.87;44.79;100938.94;5023957;28;20170;-78
2022/06/20 07:20:21;;;;;;;8.32;5.32;;;;;;;28.99;45.38;100938.84;5023315;28;20571;-78
2022/06/20 07:22:49;;;;;;;7.73;5.50;;;;;;;29.07;44.16;100932.16;5025055;28;20467;-78
2022/06/20 07:25:25;;;;;;;7.53;5.60;;;;;;;28.86;45.70;100876.34;5023256;28;20056;-78
2022/06/20 07:27:59;;;;;;;6.65;5.78;;;;;;;29.16;44.99;100933.38;5023249;28;20061;-78
2022/06/20 07:30:30;;;;;;;7.45;5.35;;;;;;;29.31;45.65;100921.84;5022986;28;20139;-78
2022/06/20 07:33:06;;;;;;;6.45;5.85;;;;;;;29.31;45.90;100917.19;5024690;28;20521;-77
2022/06/20 07:35:42;;;;;;;6.53;5.72;;;;;;;29.25;43.76;100912.75;5023074;28;20480;-77
2022/06/20 07:38:15;;;;;;;8.05;5.75;;;;;;;29.27;43.99;100920.69;5023725;28;20215;-77
2022/06/20 07:40:57;;;;;;;8.20;5.85;;;;;;;29.12;44.96;100881.13;5027291;28;20076;-78
2022/06/20 07:43:28;;;;;;;19.40;5.85;;;;;;;29.23;45.28;100897.69;5030308;28;20099;-78
2022/06/20 07:45:59;;;;;;;12.70;5.65;;;;;;;29.14;44.01;100878.97;5042672;28;20073;-78
2022/06/20 07:48:29;;;;;;;;;;;;;;;29.34;44.95;100913.13;5024785;28;20187;-79
2022/06/20 07:51:01;;;;;;;5.40;5.00;;;;;;;29.38;45.64;100890.47;5024554;28;19925;-78
2022/06/20 07:53:37;;;;;;;8.40;5.47;;;;;;;29.59;45.63;100901.69;5023544;28;20503;-78
2022/06/20 07:56:14;;;;;;;6.65;5.47;;;;;;;29.53;43.32;100908.97;5025916;28;20054;-78
2022/06/20 07:58:54;;;;;;;10.85;6.53;;;;;;;29.45;43.36;100909.44;5045003;28;20057;-78
2022/06/20 08:01:37;;;;;;;6.03;5.35;;;;;;;29.43;45.07;100891.63;5043416;28;20053;-80
2022/06/20 08:04:07;;;;;;;5.22;4.65;;;;;;;29.43;43.82;100881.50;5042870;28;20045;-78
2022/06/20 08:06:47;;;;;;;8.13;5.40;;;;;;;29.52;45.43;100907.34;5042893;28;20049;-79
2022/06/20 08:09:20;;;;;;;11.18;6.03;;;;;;;29.32;45.06;100844.19;5042584;28;20056;-79
2022/06/20 08:11:52;;;;;;;6.13;5.60;;;;;;;29.70;43.68;100897.16;5043024;28;20111;-79
2022/06/20 08:14:43;;;;;;;6.13;5.40;;;;;;;29.72;45.13;100895.00;5042639;28;20053;-78
2022/06/20 08:17:11;;;;;;;6.25;5.25;;;;;;;29.73;45.36;100897.47;5044726;28;20075;-80
2022/06/20 08:19:41;;;;;;;6.47;4.82;;;;;;;29.77;44.03;100903.25;5044761;28;20491;-79
2022/06/20 08:22:20;;;;;;;6.60;5.40;;;;;;;29.79;44.27;100907.41;5048672;28;20045;-78
2022/06/20 08:24:57;;;;;;;10.20;5.22;;;;;;;29.88;43.38;100909.66;5054656;28;20029;-79
2022/06/20 08:27:33;;;;;;;10.77;5.63;;;;;;;29.73;43.35;100892.00;5069803;28;20029;-80
2022/06/20 08:30:12;;;;;;;7.80;5.20;;;;;;;29.86;42.38;100888.03;5065552;28;20044;-78
2022/06/20 08:33:01;;;;;;;6.97;5.10;;;;;;;30.07;44.16;100913.69;5047081;28;20080;-78
2022/06/20 08:35:41;;;;;;;5.57;4.93;;;;;;;29.99;44.08;100912.25;5046593;28;20158;-79
2022/06/20 08:38:16;;;;;;;8.85;5.07;;;;;;;29.71;43.38;100853.16;5047010;28;20051;-78
2022/06/20 08:41:17;;;;;;;11.45;5.20;;;;;;;30.22;43.25;100913.84;5028937;28;20423;-79
2022/06/20 08:44:11;;;;;;;6.35;5.63;;;;;;;30.14;42.60;100914.31;5026899;28;20050;-78
2022/06/20 08:47:07;;;;;;;6.57;5.85;;;;;;;30.10;43.74;100924.13;5026384;28;20422;-78
2022/06/20 08:50:10;;;;;;;7.68;5.03;;;;;;;30.04;44.03;100920.50;5027046;28;20057;-79
2022/06/20 08:53:15;;;;;;;5.68;5.18;;;;;;;30.03;44.54;100875.06;5029336;28;20547;-79
2022/06/20 08:56:00;;;;;;;5.00;4.55;;;;;;;29.95;44.31;100904.81;5026751;28;20481;-78
2022/06/20 08:58:50;;;;;;;9.43;5.22;;;;;;;29.88;44.15;100905.03;5026561;28;20057;-79
2022/06/20 09:01:24;;;;;;;10.07;4.90;;;;;;;29.98;43.62;100907.88;5026847;28;20045;-81
2022/06/20 09:04:09;;;;;;;9.68;5.75;;;;;;;30.03;43.57;100907.09;5029804;28;20060;-79
2022/06/20 09:06:55;;;;;;;5.95;5.38;;;;;;;30.24;44.29;100908.09;5029468;28;20049;-78
2022/06/20 09:09:50;;;;;;;7.82;5.65;;;;;;;30.28;44.13;100909.28;5029522;28;20132;-79
2022/06/20 09:12:31;;;;;;;6.00;5.40;;;;;;;29.83;44.35;100904.94;5027074;28;20451;-77
2022/06/20 09:14:57;;;;;;;7.38;5.20;;;;;;;29.48;43.86;100837.00;5027444;28;20080;-78
2022/06/20 09:17:33;;;;;;;7.85;4.70;;;;;;;30.11;45.19;100908.53;5027426;28;20747;-80
2022/06/20 09:20:27;;;;;;;5.90;5.25;;;;;;;29.82;43.56;100846.69;5025888;28;20046;-79
2022/06/20 09:23:31;;;;;;;5.85;4.97;;;;;;;30.17;42.68;100902.00;5026084;28;20045;-79
2022/06/20 09:26:04;;;;;;;6.57;5.43;;;;;;;30.21;44.41;100903.97;5025671;28;20057;-79
2022/06/20 09:28:52;;;;;;;7.88;5.07;;;;;;;30.28;43.76;100895.56;5034087;28;20053;-79
2022/06/20 09:31:37;;;;;;;5.93;5.40;;;;;;;30.36;44.53;100884.13;5045740;28;20089;-79
2022/06/20 09:34:23;;;;;;;6.97;5.65;;;;;;;30.21;43.38;100875.78;5047415;28;20053;-79
2022/06/20 09:37:18;;;;;;;6.32;5.75;;;;;;;30.06;44.29;100884.69;5045425;28;20487;-79
2022/06/20 09:40:10;;;;;;;8.35;5.18;;;;;;;30.27;44.93;100885.72;5034817;28;20296;-79
2022/06/20 09:42:44;;;;;;;8.93;6.15;;;;;;;30.18;43.79;100881.78;5025892;28;20527;-76
2022/06/20 09:45:38;;;;;;;5.43;4.93;;;;;;;30.09;45.37;100877.84;5025187;28;20046;-79
2022/06/20 09:48:16;;;;;;;8.63;5.53;;;;;;;30.08;44.01;100876.22;5025373;28;20535;-79
2022/06/20 09:51:04;;;;;;;8.10;5.25;;;;;;;30.11;44.49;100872.94;5025198;28;20054;-79
2022/06/20 09:53:47;;;;;;;5.22;4.75;;;;;;;29.52;44.68;100720.53;5036414;28;20045;-80
2022/06/20 09:56:19;;;;;;;9.38;5.63;;;;;;;30.09;43.88;100840.34;5045273;28;20460;-79
2022/06/20 09:58:54;;;;;;;9.30;5.88;;;;;;;30.25;43.61;100855.03;5044971;28;20076;-80
2022/06/20 10:01:35;;;;;;;9.75;5.00;;;;;;;30.54;42.13;100857.44;5043624;28;20106;-80
2022/06/20 10:04:42;;;;;;;5.80;5.20;;;;;;;30.81;43.46;100847.19;5042023;28;20448;-79
2022/06/20 10:07:51;;;;;;;5.68;5.15;;;;;;;30.83;43.51;100856.00;5045471;28;20048;-80
2022/06/20 10:10:39;;;;;;;6.07;5.57;;;;;;;30.90;43.35;100854.94;5044651;28;20115;-81
2022/06/20 10:13:25;;;;;;;8.55;5.20;;;;;;;30.79;42.53;100819.22;5041169;28;20111;-80
2022/06/20 10:16:16;;;;;;;5.13;4.72;;;;;;;30.82;43.54;100840.59;5024790;28;20045;-80
2022/06/20 10:19:08;;;;;;;9.90;5.40;;;;;;;30.47;43.35;100818.50;5024457;28;20053;-80
2022/06/20 10:21:59;;;;;;;7.13;4.93;;;;;;;30.41;41.96;100799.25;5024793;28;20049;-79
2022/06/20 10:24:35;;;;;;;9.43;4.82;;;;;;;30.37;41.68;100789.94;5024781;28;20391;-80
2022/06/20 10:27:12;;;;;;;6.78;5.53;;;;;;;31.14;42.52;100836.94;5024653;28;20412;-81
2022/06/20 10:29:59;;;;;;;6.07;4.82;;;;;;;31.19;41.88;100834.25;5025017;28;20049;-79
2022/06/20 10:32:52;;;;;;;8.25;5.50;;;;;;;30.93;41.72;100794.13;5025984;28;20499;-80
2022/06/20 10:35:45;;;;;;;8.63;4.82;;;;;;;30.93;42.33;100833.31;5026241;28;20076;-78
2022/06/20 10:38:33;;;;;;;6.32;5.22;;;;;;;30.94;42.33;100807.53;5025032;28;20049;-79
2022/06/20 10:41:15;;;;;;;9.50;5.45;;;;;;;31.01;41.37;100821.81;5026466;28;20064;-80
2022/06/20 10:44:04;;;;;;;8.68;4.63;;;;;;;31.16;41.03;100801.88;5024446;28;20119;-79
2022/06/20 10:46:45;;;;;;;6.60;4.95;;;;;;;31.48;41.42;100809.13;5025707;28;20073;-80
2022/06/20 10:49:25;;;;;;;7.20;5.78;;;;;;;31.52;41.48;100819.28;5026948;28;20115;-79
2022/06/20 10:52:07;;;;;;;4.97;4.40;;;;;;;31.15;41.10;100813.94;5036137;28;20056;-80
2022/06/20 10:55:03;;;;;;;7.90;5.32;;;;;;;31.27;40.58;100810.97;5044347;28;20041;-79
2022/06/20 10:57:42;;;;;;;11.63;5.18;;;;;;;31.34;40.96;100810.69;5044681;28;20168;-81
2022/06/20 11:00:12;;;;;;;6.32;4.95;;;;;;;31.30;40.93;100769.28;5038216;28;20144;-79
2022/06/20 11:02:56;;;;;;;8.30;5.20;;;;;;;31.78;41.44;100810.28;5042044;28;20057;-80
2022/06/20 11:05:39;;;;;;;6.05;4.97;;;;;;;30.88;41.18;100677.88;5046500;28;20252;-78
2022/06/20 11:08:36;;;;;;;6.50;5.40;;;;;;;31.48;41.01;100785.28;5048179;28;20426;-80
2022/06/20 11:11:11;;;;;;;8.35;5.28;;;;;;;31.24;41.62;100790.38;5045159;28;20080;-79
2022/06/20 11:14:13;;;;;;;8.63;5.15;;;;;;;30.98;42.60;100791.41;5044050;28;20049;-81
2022/06/20 11:17:17;;;;;;;5.72;5.05;;;;;;;31.10;41.04;100794.72;5024380;28;20093;-80
2022/06/20 11:20:12;;;;;;;5.35;4.75;;;;;;;31.32;41.80;100774.50;5045055;28;20477;-78
2022/06/20 11:22:44;;;;;;;5.45;4.95;;;;;;;31.62;41.18;100795.69;5043707;28;20108;-79
2022/06/20 11:25:27;;;;;;;9.88;4.97;;;;;;;31.83;40.99;100794.63;5043161;28;20110;-80
2022/06/20 11:28:08;;;;;;;8.63;4.80;;;;;;;32.04;40.83;100792.75;5043933;28;20053;-81
2022/06/20 11:30:47;;;;;;;9.98;4.88;;;;;;;31.73;40.39;100786.41;5045127;28;20048;-79
2022/06/20 11:34:02;;;;;;;5.20;4.80;;;;;;;31.60;40.60;100732.84;5045121;28;20049;-80
2022/06/20 11:37:06;;;;;;;7.68;5.57;;;;;;;31.77;39.60;100778.41;5045473;28;20045;-82
2022/06/20 11:39:53;;;;;;;10.35;5.55;;;;;;;31.96;40.03;100779.56;5032401;28;20045;-81
2022/06/20 11:42:45;;;;;;;9.23;5.70;;;;;;;31.80;40.27;100764.16;5024999;28;20053;-77
2022/06/20 11:45:28;;;;;;;5.85;5.00;;;;;;;31.64;39.06;100750.44;5026515;28;20462;-79
2022/06/20 11:47:56;;;;;;;5.93;5.15;;;;;;;31.91;40.25;100769.38;5026039;28;20480;-78
2022/06/20 11:50:26;;;;;;;6.15;5.55;;;;;;;32.02;39.01;100778.47;5043852;28;20496;-80
2022/06/20 11:53:19;;;;;;;6.57;5.18;;;;;;;32.12;40.05;100761.97;5040813;28;20241;-80
2022/06/20 11:55:55;;;;;;;5.80;5.03;;;;;;;32.24;39.62;100775.41;5025279;28;20055;-80
2022/06/20 11:59:12;;;;;;;7.75;5.25;;;;;;;32.03;39.38;100719.69;5024982;28;20630;-80
2022/06/20 12:01:46;;;;;;;8.23;5.55;;;;;;;32.28;36.84;100759.19;5045280;28;20056;-79
2022/06/20 12:04:36;;;;;;;8.60;5.28;;;;;;;32.22;38.59;100736.41;5043264;28;20154;-80
2022/06/20 12:07:31;;;;;;;5.32;4.82;;;;;;;32.45;37.95;100762.44;5046155;28;20136;-81
2022/06/20 12:10:01;;;;;;;8.13;4.68;;;;;;;32.63;37.13;100776.75;5046880;28;20081;-80
2022/06/20 12:12:50;;;;;;;9.18;5.35;;;;;;;32.45;35.44;100688.25;5049119;28;20369;-81
2022/06/20 12:15:35;;;;;;;5.93;5.07;;;;;;;33.06;36.16;100758.72;5046803;28;20041;-80